Impacts METAR Board
IDs:

KSFO - San Francisco Intl, CA, US

Updated at: 2300 UTC 01 Mar 2021
Potential Impact None Slight Moderate High
Time 01/11Z 01/12Z 01/13Z 01/14Z 01/15Z 01/16Z 01/17Z 01/18Z 01/19Z 01/20Z 01/21Z 01/22Z 01/23Z
Temp47 46 45 45 45 52 56 60 62 60 61 66 69
Dewpt34 32 32 32 33 36 40 31 37 44 46 35 25
Altim30.15 30.14 30.13 30.14 30.15 30.16 30.17 30.17 30.15 30.13 30.11 30.08 30.05
VIS10 10 10 10 10 10 10 10 10 10 10 10 10
CIG-- -- -- -- -- -- -- -- -- -- -- -- --
CoverCLRCLRCLRCLRCLRCLRCLRCLRFEWCLRCLRCLRCLR
FltCatVFRVFRVFRVFRVFRVFRVFRVFRVFRVFRVFRVFRVFR
WX--------------------------
WDir21031027028028003502108040400180
WSpd3 3 3 3 7 0 3 9 5 9 9 6 17
WGst-- -- -- -- -- -- -- -- -- -- -- -- --
Raw hourly METARs
KSFO 011056Z 21003KT 10SM CLR 08/01 A3015 RMK AO2 SLP209 T00830011 $
KSFO 011156Z 31003KT 10SM CLR 08/00 A3014 RMK AO2 SLP206 T00780000 10133 20078 56010 $
KSFO 011256Z 27003KT 10SM CLR 07/00 A3013 RMK AO2 SLP204 T00720000 $
KSFO 011356Z 28003KT 10SM CLR 07/00 A3014 RMK AO2 SLP206 T00720000 $
KSFO 011456Z 28007KT 10SM CLR 07/01 A3015 RMK AO2 SLP209 T00720006 53003 $
KSFO 011556Z 00000KT 10SM CLR 11/02 A3016 RMK AO2 SLP212 T01110022
KSFO 011656Z 35003KT 10SM CLR 13/04 A3017 RMK AO2 SLP215 T01330044
KSFO 011756Z 21009KT 10SM CLR 16/M01 A3017 RMK AO2 SLP214 T01561006 10156 20072 50005
KSFO 011856Z 08005KT 10SM FEW200 17/03 A3015 RMK AO2 SLP208 T01670028
KSFO 011956Z 04009KT 10SM CLR 16/07 A3013 RMK AO2 SLP202 T01560067
KSFO 012056Z 04009KT 10SM CLR 16/08 A3011 RMK AO2 SLP195 T01610078 58019
KSFO 012156Z VRB06KT 10SM CLR 19/02 A3008 RMK AO2 SLP185 T01890017
KSFO 012256Z 18017KT 10SM CLR 21/M04 A3005 RMK AO2 SLP176 T02061039



Page loaded:  23:32 UTC  |   03:32 PM Pacific  |   04:32 PM Mountain  |   05:32 PM Central  |   06:32 PM Eastern

 

ADVISORIES

FORECASTS

FORECASTS

OBSERVATIONS

USER TOOLS

ABOUT US